sensor_id;sensor_type;location;lat;lon;timestamp;P1;durP1;ratioP1;P2;durP2;ratioP2
46128;SDS011;31860;45.186;5.790;2022-12-18T00:00:43;2.63;;;0.80;;
46128;SDS011;31860;45.186;5.790;2022-12-18T00:03:11;1.70;;;1.50;;
46128;SDS011;31860;45.186;5.790;2022-12-18T00:05:37;2.05;;;1.33;;
46128;SDS011;31860;45.186;5.790;2022-12-18T00:08:10;7.65;;;2.10;;
46128;SDS011;31860;45.186;5.790;2022-12-18T00:10:35;5.32;;;2.00;;
46128;SDS011;31860;45.186;5.790;2022-12-18T00:13:01;2.50;;;1.77;;
46128;SDS011;31860;45.186;5.790;2022-12-18T00:15:26;1.85;;;1.30;;
46128;SDS011;31860;45.186;5.790;2022-12-18T00:17:52;3.75;;;2.08;;
46128;SDS011;31860;45.186;5.790;2022-12-18T00:20:17;4.15;;;2.25;;
46128;SDS011;31860;45.186;5.790;2022-12-18T00:22:48;3.00;;;2.15;;
46128;SDS011;31860;45.186;5.790;2022-12-18T00:25:14;4.40;;;1.92;;
46128;SDS011;31860;45.186;5.790;2022-12-18T00:27:39;6.97;;;2.03;;
46128;SDS011;31860;45.186;5.790;2022-12-18T00:30:05;2.78;;;1.98;;
46128;SDS011;31860;45.186;5.790;2022-12-18T00:32:30;1.95;;;1.60;;
46128;SDS011;31860;45.186;5.790;2022-12-18T00:34:57;6.35;;;1.95;;
46128;SDS011;31860;45.186;5.790;2022-12-18T00:37:22;5.47;;;2.20;;
46128;SDS011;31860;45.186;5.790;2022-12-18T00:39:48;1.58;;;1.48;;
46128;SDS011;31860;45.186;5.790;2022-12-18T00:42:14;2.15;;;1.67;;
46128;SDS011;31860;45.186;5.790;2022-12-18T00:44:58;2.30;;;1.73;;
46128;SDS011;31860;45.186;5.790;2022-12-18T00:47:23;1.88;;;1.60;;
46128;SDS011;31860;45.186;5.790;2022-12-18T00:49:49;2.90;;;1.73;;
46128;SDS011;31860;45.186;5.790;2022-12-18T00:52:14;1.15;;;1.05;;
46128;SDS011;31860;45.186;5.790;2022-12-18T00:54:39;2.53;;;1.58;;
46128;SDS011;31860;45.186;5.790;2022-12-18T00:57:05;1.80;;;1.50;;
46128;SDS011;31860;45.186;5.790;2022-12-18T00:59:30;2.15;;;1.25;;
46128;SDS011;31860;45.186;5.790;2022-12-18T01:01:56;2.83;;;1.65;;
46128;SDS011;31860;45.186;5.790;2022-12-18T01:04:21;5.97;;;1.38;;
46128;SDS011;31860;45.186;5.790;2022-12-18T01:06:47;1.13;;;0.93;;
46128;SDS011;31860;45.186;5.790;2022-12-18T01:09:12;2.90;;;1.65;;
46128;SDS011;31860;45.186;5.790;2022-12-18T01:11:37;2.55;;;1.60;;
46128;SDS011;31860;45.186;5.790;2022-12-18T01:14:03;7.72;;;2.53;;
46128;SDS011;31860;45.186;5.790;2022-12-18T01:16:29;6.47;;;2.63;;
46128;SDS011;31860;45.186;5.790;2022-12-18T01:18:54;1.20;;;1.10;;
46128;SDS011;31860;45.186;5.790;2022-12-18T01:21:19;1.67;;;1.02;;
46128;SDS011;31860;45.186;5.790;2022-12-18T01:23:46;3.75;;;1.30;;
46128;SDS011;31860;45.186;5.790;2022-12-18T01:26:13;2.95;;;1.08;;
46128;SDS011;31860;45.186;5.790;2022-12-18T01:28:40;1.38;;;1.27;;
46128;SDS011;31860;45.186;5.790;2022-12-18T01:31:10;0.77;;;0.77;;
46128;SDS011;31860;45.186;5.790;2022-12-18T01:33:39;1.92;;;1.77;;
46128;SDS011;31860;45.186;5.790;2022-12-18T01:36:05;0.93;;;0.80;;
46128;SDS011;31860;45.186;5.790;2022-12-18T01:38:31;0.63;;;0.63;;
46128;SDS011;31860;45.186;5.790;2022-12-18T01:40:57;0.93;;;0.63;;
46128;SDS011;31860;45.186;5.790;2022-12-18T01:43:40;1.60;;;1.48;;
46128;SDS011;31860;45.186;5.790;2022-12-18T01:46:06;1.30;;;1.20;;
46128;SDS011;31860;45.186;5.790;2022-12-18T01:48:32;0.77;;;0.60;;
46128;SDS011;31860;45.186;5.790;2022-12-18T01:50:57;4.18;;;1.13;;
46128;SDS011;31860;45.186;5.790;2022-12-18T01:53:24;0.95;;;0.93;;
46128;SDS011;31860;45.186;5.790;2022-12-18T01:55:50;1.40;;;0.98;;
46128;SDS011;31860;45.186;5.790;2022-12-18T01:58:21;0.70;;;0.70;;
46128;SDS011;31860;45.186;5.790;2022-12-18T02:00:53;2.22;;;1.00;;
46128;SDS011;31860;45.186;5.790;2022-12-18T02:03:19;1.17;;;0.95;;
46128;SDS011;31860;45.186;5.790;2022-12-18T02:08:44;2.58;;;1.45;;
46128;SDS011;31860;45.186;5.790;2022-12-18T02:11:18;1.30;;;1.00;;
46128;SDS011;31860;45.186;5.790;2022-12-18T02:14:08;2.00;;;0.90;;
46128;SDS011;31860;45.186;5.790;2022-12-18T02:16:44;2.55;;;1.10;;
46128;SDS011;31860;45.186;5.790;2022-12-18T02:22:43;1.00;;;0.93;;
46128;SDS011;31860;45.186;5.790;2022-12-18T02:28:08;1.75;;;0.90;;
46128;SDS011;31860;45.186;5.790;2022-12-18T02:30:37;0.57;;;0.57;;
46128;SDS011;31860;45.186;5.790;2022-12-18T02:33:06;1.95;;;1.00;;
46128;SDS011;31860;45.186;5.790;2022-12-18T02:35:35;2.83;;;1.52;;
46128;SDS011;31860;45.186;5.790;2022-12-18T02:38:02;4.00;;;1.10;;
46128;SDS011;31860;45.186;5.790;2022-12-18T02:40:29;0.88;;;0.75;;
46128;SDS011;31860;45.186;5.790;2022-12-18T02:42:55;2.75;;;1.23;;
46128;SDS011;31860;45.186;5.790;2022-12-18T02:45:28;5.03;;;1.63;;
46128;SDS011;31860;45.186;5.790;2022-12-18T02:47:53;2.42;;;1.35;;
46128;SDS011;31860;45.186;5.790;2022-12-18T02:58:48;0.52;;;0.52;;
46128;SDS011;31860;45.186;5.790;2022-12-18T03:04:20;1.63;;;0.63;;
46128;SDS011;31860;45.186;5.790;2022-12-18T03:06:53;0.77;;;0.77;;
46128;SDS011;31860;45.186;5.790;2022-12-18T03:09:21;2.47;;;0.60;;
46128;SDS011;31860;45.186;5.790;2022-12-18T03:11:56;1.10;;;0.70;;
46128;SDS011;31860;45.186;5.790;2022-12-18T03:14:45;2.38;;;0.82;;
46128;SDS011;31860;45.186;5.790;2022-12-18T03:17:25;1.08;;;1.00;;
46128;SDS011;31860;45.186;5.790;2022-12-18T03:19:52;1.02;;;0.90;;
46128;SDS011;31860;45.186;5.790;2022-12-18T03:22:22;1.35;;;0.57;;
46128;SDS011;31860;45.186;5.790;2022-12-18T03:24:52;0.40;;;0.40;;
46128;SDS011;31860;45.186;5.790;2022-12-18T03:27:21;0.90;;;0.75;;
46128;SDS011;31860;45.186;5.790;2022-12-18T03:29:50;1.00;;;0.90;;
46128;SDS011;31860;45.186;5.790;2022-12-18T03:32:29;1.15;;;0.93;;
46128;SDS011;31860;45.186;5.790;2022-12-18T03:34:59;2.05;;;1.35;;
46128;SDS011;31860;45.186;5.790;2022-12-18T03:37:28;1.13;;;1.10;;
46128;SDS011;31860;45.186;5.790;2022-12-18T03:39:53;1.63;;;1.52;;
46128;SDS011;31860;45.186;5.790;2022-12-18T03:45:13;1.17;;;1.05;;
46128;SDS011;31860;45.186;5.790;2022-12-18T03:48:04;0.70;;;0.70;;
46128;SDS011;31860;45.186;5.790;2022-12-18T03:51:17;1.15;;;1.02;;
46128;SDS011;31860;45.186;5.790;2022-12-18T03:56:01;1.67;;;1.05;;
46128;SDS011;31860;45.186;5.790;2022-12-18T03:58:29;1.15;;;1.05;;
46128;SDS011;31860;45.186;5.790;2022-12-18T04:00:58;1.90;;;1.50;;
46128;SDS011;31860;45.186;5.790;2022-12-18T04:03:27;1.20;;;1.10;;
46128;SDS011;31860;45.186;5.790;2022-12-18T04:05:54;0.70;;;0.70;;
46128;SDS011;31860;45.186;5.790;2022-12-18T04:08:21;1.95;;;0.82;;
46128;SDS011;31860;45.186;5.790;2022-12-18T04:10:48;4.15;;;1.05;;
46128;SDS011;31860;45.186;5.790;2022-12-18T04:13:21;5.32;;;1.13;;
46128;SDS011;31860;45.186;5.790;2022-12-18T04:15:52;1.52;;;1.05;;
46128;SDS011;31860;45.186;5.790;2022-12-18T04:18:18;1.15;;;1.05;;
46128;SDS011;31860;45.186;5.790;2022-12-18T04:20:43;1.05;;;0.80;;
46128;SDS011;31860;45.186;5.790;2022-12-18T04:23:09;1.10;;;1.05;;
46128;SDS011;31860;45.186;5.790;2022-12-18T04:25:34;5.78;;;1.25;;
46128;SDS011;31860;45.186;5.790;2022-12-18T04:27:59;2.95;;;1.23;;
46128;SDS011;31860;45.186;5.790;2022-12-18T04:30:25;3.60;;;1.80;;
46128;SDS011;31860;45.186;5.790;2022-12-18T04:32:50;1.55;;;1.35;;
46128;SDS011;31860;45.186;5.790;2022-12-18T04:35:15;2.63;;;1.13;;
46128;SDS011;31860;45.186;5.790;2022-12-18T04:37:41;2.25;;;1.60;;
46128;SDS011;31860;45.186;5.790;2022-12-18T04:40:06;1.15;;;1.05;;
46128;SDS011;31860;45.186;5.790;2022-12-18T04:42:32;1.60;;;1.15;;
46128;SDS011;31860;45.186;5.790;2022-12-18T04:44:58;0.95;;;0.95;;
46128;SDS011;31860;45.186;5.790;2022-12-18T04:47:23;5.93;;;1.63;;
46128;SDS011;31860;45.186;5.790;2022-12-18T04:49:48;1.23;;;1.17;;
46128;SDS011;31860;45.186;5.790;2022-12-18T04:52:14;1.30;;;0.90;;
46128;SDS011;31860;45.186;5.790;2022-12-18T04:54:39;0.88;;;0.82;;
46128;SDS011;31860;45.186;5.790;2022-12-18T04:57:04;2.08;;;1.02;;
46128;SDS011;31860;45.186;5.790;2022-12-18T04:59:30;0.55;;;0.55;;
46128;SDS011;31860;45.186;5.790;2022-12-18T05:01:55;0.63;;;0.52;;
46128;SDS011;31860;45.186;5.790;2022-12-18T05:04:21;1.77;;;0.95;;
46128;SDS011;31860;45.186;5.790;2022-12-18T05:06:46;6.40;;;1.58;;
46128;SDS011;31860;45.186;5.790;2022-12-18T05:09:11;2.25;;;1.60;;
46128;SDS011;31860;45.186;5.790;2022-12-18T05:11:37;1.90;;;0.77;;
46128;SDS011;31860;45.186;5.790;2022-12-18T05:14:02;7.55;;;1.13;;
46128;SDS011;31860;45.186;5.790;2022-12-18T05:16:28;2.38;;;0.80;;
46128;SDS011;31860;45.186;5.790;2022-12-18T05:18:53;1.13;;;0.80;;
46128;SDS011;31860;45.186;5.790;2022-12-18T05:21:18;4.22;;;1.35;;
46128;SDS011;31860;45.186;5.790;2022-12-18T05:23:44;1.30;;;1.00;;
46128;SDS011;31860;45.186;5.790;2022-12-18T05:26:09;2.42;;;1.02;;
46128;SDS011;31860;45.186;5.790;2022-12-18T05:28:40;3.53;;;1.25;;
46128;SDS011;31860;45.186;5.790;2022-12-18T05:31:05;0.95;;;0.93;;
46128;SDS011;31860;45.186;5.790;2022-12-18T05:33:32;2.15;;;1.38;;
46128;SDS011;31860;45.186;5.790;2022-12-18T05:36:03;1.20;;;1.10;;
46128;SDS011;31860;45.186;5.790;2022-12-18T05:38:31;2.65;;;1.67;;
46128;SDS011;31860;45.186;5.790;2022-12-18T05:40:58;3.80;;;1.25;;
46128;SDS011;31860;45.186;5.790;2022-12-18T05:43:24;2.97;;;1.10;;
46128;SDS011;31860;45.186;5.790;2022-12-18T05:45:50;0.50;;;0.50;;
46128;SDS011;31860;45.186;5.790;2022-12-18T05:48:16;2.67;;;1.45;;
46128;SDS011;31860;45.186;5.790;2022-12-18T05:50:42;4.82;;;1.00;;
46128;SDS011;31860;45.186;5.790;2022-12-18T05:53:10;1.85;;;0.77;;
46128;SDS011;31860;45.186;5.790;2022-12-18T05:55:37;2.47;;;0.75;;
46128;SDS011;31860;45.186;5.790;2022-12-18T05:58:04;0.60;;;0.60;;
46128;SDS011;31860;45.186;5.790;2022-12-18T06:00:31;1.55;;;0.70;;
46128;SDS011;31860;45.186;5.790;2022-12-18T06:02:57;2.10;;;1.15;;
46128;SDS011;31860;45.186;5.790;2022-12-18T06:05:24;0.90;;;0.90;;
46128;SDS011;31860;45.186;5.790;2022-12-18T06:07:50;1.60;;;0.70;;
46128;SDS011;31860;45.186;5.790;2022-12-18T06:10:15;0.40;;;0.40;;
46128;SDS011;31860;45.186;5.790;2022-12-18T06:12:41;0.73;;;0.68;;
46128;SDS011;31860;45.186;5.790;2022-12-18T06:15:06;0.85;;;0.60;;
46128;SDS011;31860;45.186;5.790;2022-12-18T06:17:33;0.60;;;0.60;;
46128;SDS011;31860;45.186;5.790;2022-12-18T06:19:58;1.60;;;1.10;;
46128;SDS011;31860;45.186;5.790;2022-12-18T06:22:24;0.52;;;0.52;;
46128;SDS011;31860;45.186;5.790;2022-12-18T06:24:49;3.30;;;1.30;;
46128;SDS011;31860;45.186;5.790;2022-12-18T06:27:15;0.60;;;0.60;;
46128;SDS011;31860;45.186;5.790;2022-12-18T06:29:41;1.25;;;1.02;;
46128;SDS011;31860;45.186;5.790;2022-12-18T06:32:07;0.82;;;0.80;;
46128;SDS011;31860;45.186;5.790;2022-12-18T06:34:32;1.00;;;0.80;;
46128;SDS011;31860;45.186;5.790;2022-12-18T06:36:58;2.30;;;1.20;;
46128;SDS011;31860;45.186;5.790;2022-12-18T06:39:24;1.10;;;1.00;;
46128;SDS011;31860;45.186;5.790;2022-12-18T06:41:52;0.68;;;0.68;;
46128;SDS011;31860;45.186;5.790;2022-12-18T06:44:17;1.65;;;1.15;;
46128;SDS011;31860;45.186;5.790;2022-12-18T06:46:42;0.93;;;0.70;;
46128;SDS011;31860;45.186;5.790;2022-12-18T06:49:08;1.60;;;1.30;;
46128;SDS011;31860;45.186;5.790;2022-12-18T06:51:34;0.80;;;0.80;;
46128;SDS011;31860;45.186;5.790;2022-12-18T06:54:00;0.88;;;0.88;;
46128;SDS011;31860;45.186;5.790;2022-12-18T06:56:25;2.95;;;0.70;;
46128;SDS011;31860;45.186;5.790;2022-12-18T06:58:50;0.52;;;0.52;;
46128;SDS011;31860;45.186;5.790;2022-12-18T07:01:16;0.40;;;0.40;;
46128;SDS011;31860;45.186;5.790;2022-12-18T07:03:41;1.52;;;1.10;;
46128;SDS011;31860;45.186;5.790;2022-12-18T07:06:12;1.52;;;1.20;;
46128;SDS011;31860;45.186;5.790;2022-12-18T07:08:40;3.13;;;1.40;;
46128;SDS011;31860;45.186;5.790;2022-12-18T07:11:05;1.75;;;1.00;;
46128;SDS011;31860;45.186;5.790;2022-12-18T07:13:31;3.97;;;1.42;;
46128;SDS011;31860;45.186;5.790;2022-12-18T07:16:02;4.68;;;2.40;;
46128;SDS011;31860;45.186;5.790;2022-12-18T07:18:35;5.20;;;1.83;;
46128;SDS011;31860;45.186;5.790;2022-12-18T07:21:08;1.35;;;1.13;;
46128;SDS011;31860;45.186;5.790;2022-12-18T07:23:35;2.28;;;1.45;;
46128;SDS011;31860;45.186;5.790;2022-12-18T07:26:04;1.35;;;1.25;;
46128;SDS011;31860;45.186;5.790;2022-12-18T07:28:32;2.92;;;1.55;;
46128;SDS011;31860;45.186;5.790;2022-12-18T07:30:58;1.75;;;1.58;;
46128;SDS011;31860;45.186;5.790;2022-12-18T07:33:27;0.95;;;0.95;;
46128;SDS011;31860;45.186;5.790;2022-12-18T07:35:52;2.28;;;1.48;;
46128;SDS011;31860;45.186;5.790;2022-12-18T07:38:18;1.40;;;1.13;;
46128;SDS011;31860;45.186;5.790;2022-12-18T07:40:43;2.75;;;1.80;;
46128;SDS011;31860;45.186;5.790;2022-12-18T07:43:09;1.42;;;1.10;;
46128;SDS011;31860;45.186;5.790;2022-12-18T07:45:34;0.80;;;0.77;;
46128;SDS011;31860;45.186;5.790;2022-12-18T07:47:59;1.08;;;0.80;;
46128;SDS011;31860;45.186;5.790;2022-12-18T07:50:25;1.35;;;0.73;;
46128;SDS011;31860;45.186;5.790;2022-12-18T07:52:53;0.73;;;0.70;;
46128;SDS011;31860;45.186;5.790;2022-12-18T07:55:19;1.15;;;0.73;;
46128;SDS011;31860;45.186;5.790;2022-12-18T07:57:44;0.80;;;0.80;;
46128;SDS011;31860;45.186;5.790;2022-12-18T08:00:10;1.20;;;1.10;;
46128;SDS011;31860;45.186;5.790;2022-12-18T08:02:36;2.17;;;1.33;;
46128;SDS011;31860;45.186;5.790;2022-12-18T08:05:02;2.22;;;1.38;;
46128;SDS011;31860;45.186;5.790;2022-12-18T08:07:27;1.75;;;1.10;;
46128;SDS011;31860;45.186;5.790;2022-12-18T08:09:53;2.45;;;0.93;;
46128;SDS011;31860;45.186;5.790;2022-12-18T08:12:18;3.50;;;1.33;;
46128;SDS011;31860;45.186;5.790;2022-12-18T08:14:44;0.90;;;0.90;;
46128;SDS011;31860;45.186;5.790;2022-12-18T08:17:09;5.43;;;2.28;;
46128;SDS011;31860;45.186;5.790;2022-12-18T08:19:35;1.75;;;1.33;;
46128;SDS011;31860;45.186;5.790;2022-12-18T08:22:00;1.73;;;1.13;;
46128;SDS011;31860;45.186;5.790;2022-12-18T08:24:26;1.88;;;1.35;;
46128;SDS011;31860;45.186;5.790;2022-12-18T08:26:51;2.22;;;1.13;;
46128;SDS011;31860;45.186;5.790;2022-12-18T08:29:17;1.85;;;1.42;;
46128;SDS011;31860;45.186;5.790;2022-12-18T08:31:42;1.30;;;1.17;;
46128;SDS011;31860;45.186;5.790;2022-12-18T08:34:08;1.73;;;1.48;;
46128;SDS011;31860;45.186;5.790;2022-12-18T08:36:33;2.58;;;1.35;;
46128;SDS011;31860;45.186;5.790;2022-12-18T08:38:59;1.10;;;1.00;;
46128;SDS011;31860;45.186;5.790;2022-12-18T08:41:24;3.97;;;1.55;;
46128;SDS011;31860;45.186;5.790;2022-12-18T08:43:50;2.20;;;1.55;;
46128;SDS011;31860;45.186;5.790;2022-12-18T08:46:35;5.53;;;1.92;;
46128;SDS011;31860;45.186;5.790;2022-12-18T08:49:03;2.47;;;1.67;;
46128;SDS011;31860;45.186;5.790;2022-12-18T08:51:29;6.95;;;1.40;;
46128;SDS011;31860;45.186;5.790;2022-12-18T08:53:55;1.42;;;1.33;;
46128;SDS011;31860;45.186;5.790;2022-12-18T08:56:20;8.55;;;2.38;;
46128;SDS011;31860;45.186;5.790;2022-12-18T08:58:46;1.70;;;1.27;;
46128;SDS011;31860;45.186;5.790;2022-12-18T09:01:11;0.70;;;0.70;;
46128;SDS011;31860;45.186;5.790;2022-12-18T09:03:38;2.03;;;1.35;;
46128;SDS011;31860;45.186;5.790;2022-12-18T09:06:04;1.75;;;1.25;;
46128;SDS011;31860;45.186;5.790;2022-12-18T09:08:30;1.65;;;1.55;;
46128;SDS011;31860;45.186;5.790;2022-12-18T09:10:56;1.77;;;1.40;;
46128;SDS011;31860;45.186;5.790;2022-12-18T09:13:22;2.72;;;1.33;;
46128;SDS011;31860;45.186;5.790;2022-12-18T09:15:48;4.75;;;1.90;;
46128;SDS011;31860;45.186;5.790;2022-12-18T09:18:15;5.65;;;2.45;;
46128;SDS011;31860;45.186;5.790;2022-12-18T09:20:42;8.32;;;3.10;;
46128;SDS011;31860;45.186;5.790;2022-12-18T09:23:08;4.60;;;3.15;;
46128;SDS011;31860;45.186;5.790;2022-12-18T09:25:34;4.05;;;2.17;;
46128;SDS011;31860;45.186;5.790;2022-12-18T09:28:02;7.80;;;2.58;;
46128;SDS011;31860;45.186;5.790;2022-12-18T09:30:36;1.33;;;1.20;;
46128;SDS011;31860;45.186;5.790;2022-12-18T09:33:06;2.58;;;1.92;;
46128;SDS011;31860;45.186;5.790;2022-12-18T09:35:32;4.00;;;1.85;;
46128;SDS011;31860;45.186;5.790;2022-12-18T09:37:57;1.25;;;1.05;;
46128;SDS011;31860;45.186;5.790;2022-12-18T09:40:24;3.55;;;1.42;;
46128;SDS011;31860;45.186;5.790;2022-12-18T09:42:54;4.38;;;1.83;;
46128;SDS011;31860;45.186;5.790;2022-12-18T09:45:24;2.20;;;1.85;;
46128;SDS011;31860;45.186;5.790;2022-12-18T09:47:49;3.58;;;2.60;;
46128;SDS011;31860;45.186;5.790;2022-12-18T09:50:22;4.60;;;2.15;;
46128;SDS011;31860;45.186;5.790;2022-12-18T09:52:49;2.25;;;1.92;;
46128;SDS011;31860;45.186;5.790;2022-12-18T09:55:36;4.90;;;2.22;;
46128;SDS011;31860;45.186;5.790;2022-12-18T09:58:06;4.88;;;2.13;;
46128;SDS011;31860;45.186;5.790;2022-12-18T10:00:35;8.43;;;2.47;;
46128;SDS011;31860;45.186;5.790;2022-12-18T10:03:03;4.82;;;1.83;;
46128;SDS011;31860;45.186;5.790;2022-12-18T10:08:23;3.92;;;2.10;;
46128;SDS011;31860;45.186;5.790;2022-12-18T10:11:01;2.72;;;2.15;;
46128;SDS011;31860;45.186;5.790;2022-12-18T10:13:46;4.32;;;2.15;;
46128;SDS011;31860;45.186;5.790;2022-12-18T10:22:07;2.83;;;2.00;;
46128;SDS011;31860;45.186;5.790;2022-12-18T10:25:04;1.95;;;1.20;;
46128;SDS011;31860;45.186;5.790;2022-12-18T10:27:41;2.47;;;1.95;;
46128;SDS011;31860;45.186;5.790;2022-12-18T10:30:18;1.60;;;0.98;;
46128;SDS011;31860;45.186;5.790;2022-12-18T10:32:47;4.18;;;1.67;;
46128;SDS011;31860;45.186;5.790;2022-12-18T10:35:31;2.38;;;1.77;;
46128;SDS011;31860;45.186;5.790;2022-12-18T10:38:04;4.68;;;1.40;;
46128;SDS011;31860;45.186;5.790;2022-12-18T10:43:21;1.08;;;0.98;;
46128;SDS011;31860;45.186;5.790;2022-12-18T10:46:02;5.47;;;2.13;;
46128;SDS011;31860;45.186;5.790;2022-12-18T10:48:54;6.38;;;2.75;;
46128;SDS011;31860;45.186;5.790;2022-12-18T10:51:24;4.15;;;1.23;;
46128;SDS011;31860;45.186;5.790;2022-12-18T10:54:03;2.83;;;1.85;;
46128;SDS011;31860;45.186;5.790;2022-12-18T10:56:39;4.22;;;1.83;;
46128;SDS011;31860;45.186;5.790;2022-12-18T10:59:07;2.63;;;2.08;;
46128;SDS011;31860;45.186;5.790;2022-12-18T11:04:29;5.93;;;1.77;;
46128;SDS011;31860;45.186;5.790;2022-12-18T11:07:03;1.40;;;0.90;;
46128;SDS011;31860;45.186;5.790;2022-12-18T11:12:19;3.22;;;1.08;;
46128;SDS011;31860;45.186;5.790;2022-12-18T11:14:48;1.52;;;1.20;;
46128;SDS011;31860;45.186;5.790;2022-12-18T11:19:52;2.45;;;1.40;;
46128;SDS011;31860;45.186;5.790;2022-12-18T11:24:53;2.00;;;1.02;;
46128;SDS011;31860;45.186;5.790;2022-12-18T11:27:19;0.98;;;0.88;;
46128;SDS011;31860;45.186;5.790;2022-12-18T11:29:46;5.07;;;1.90;;
46128;SDS011;31860;45.186;5.790;2022-12-18T11:34:45;2.40;;;1.20;;
46128;SDS011;31860;45.186;5.790;2022-12-18T11:37:14;1.95;;;1.27;;
46128;SDS011;31860;45.186;5.790;2022-12-18T11:39:52;0.82;;;0.80;;
46128;SDS011;31860;45.186;5.790;2022-12-18T11:42:34;3.03;;;1.63;;
46128;SDS011;31860;45.186;5.790;2022-12-18T11:47:41;2.10;;;1.23;;
46128;SDS011;31860;45.186;5.790;2022-12-18T11:52:58;0.70;;;0.70;;
46128;SDS011;31860;45.186;5.790;2022-12-18T12:09:03;2.78;;;1.20;;
46128;SDS011;31860;45.186;5.790;2022-12-18T12:11:43;1.73;;;1.10;;
46128;SDS011;31860;45.186;5.790;2022-12-18T12:30:43;1.17;;;1.08;;
46128;SDS011;31860;45.186;5.790;2022-12-18T12:40:59;2.08;;;0.90;;
46128;SDS011;31860;45.186;5.790;2022-12-18T12:43:39;1.58;;;1.30;;
46128;SDS011;31860;45.186;5.790;2022-12-18T12:46:10;0.52;;;0.50;;
46128;SDS011;31860;45.186;5.790;2022-12-18T12:51:19;1.73;;;0.70;;
46128;SDS011;31860;45.186;5.790;2022-12-18T12:53:48;0.80;;;0.80;;
46128;SDS011;31860;45.186;5.790;2022-12-18T12:56:15;0.60;;;0.60;;
46128;SDS011;31860;45.186;5.790;2022-12-18T12:58:48;0.50;;;0.50;;
46128;SDS011;31860;45.186;5.790;2022-12-18T13:01:36;1.38;;;0.63;;
46128;SDS011;31860;45.186;5.790;2022-12-18T13:06:53;1.60;;;1.00;;
46128;SDS011;31860;45.186;5.790;2022-12-18T13:09:19;0.40;;;0.40;;
46128;SDS011;31860;45.186;5.790;2022-12-18T13:11:45;1.10;;;1.05;;
46128;SDS011;31860;45.186;5.790;2022-12-18T13:14:35;0.70;;;0.43;;
46128;SDS011;31860;45.186;5.790;2022-12-18T13:24:58;3.70;;;0.88;;
46128;SDS011;31860;45.186;5.790;2022-12-18T13:35:38;0.30;;;0.30;;
46128;SDS011;31860;45.186;5.790;2022-12-18T13:38:33;4.57;;;0.90;;
46128;SDS011;31860;45.186;5.790;2022-12-18T13:46:20;0.75;;;0.70;;
46128;SDS011;31860;45.186;5.790;2022-12-18T13:51:35;0.52;;;0.47;;
46128;SDS011;31860;45.186;5.790;2022-12-18T13:54:01;0.50;;;0.50;;
46128;SDS011;31860;45.186;5.790;2022-12-18T13:56:42;0.77;;;0.77;;
46128;SDS011;31860;45.186;5.790;2022-12-18T13:59:23;0.57;;;0.50;;
46128;SDS011;31860;45.186;5.790;2022-12-18T14:01:58;0.38;;;0.38;;
46128;SDS011;31860;45.186;5.790;2022-12-18T14:04:30;0.32;;;0.32;;
46128;SDS011;31860;45.186;5.790;2022-12-18T14:07:10;0.82;;;0.35;;
46128;SDS011;31860;45.186;5.790;2022-12-18T14:09:42;0.45;;;0.45;;
46128;SDS011;31860;45.186;5.790;2022-12-18T14:12:17;1.52;;;0.68;;
46128;SDS011;31860;45.186;5.790;2022-12-18T14:15:06;0.50;;;0.50;;
46128;SDS011;31860;45.186;5.790;2022-12-18T14:17:50;0.40;;;0.40;;
46128;SDS011;31860;45.186;5.790;2022-12-18T14:20:17;0.40;;;0.40;;
46128;SDS011;31860;45.186;5.790;2022-12-18T14:22:46;0.40;;;0.40;;
46128;SDS011;31860;45.186;5.790;2022-12-18T14:25:18;0.57;;;0.57;;
46128;SDS011;31860;45.186;5.790;2022-12-18T14:27:47;0.35;;;0.35;;
46128;SDS011;31860;45.186;5.790;2022-12-18T14:33:24;0.20;;;0.20;;
46128;SDS011;31860;45.186;5.790;2022-12-18T14:40:58;0.63;;;0.63;;
46128;SDS011;31860;45.186;5.790;2022-12-18T14:43:24;0.45;;;0.30;;
46128;SDS011;31860;45.186;5.790;2022-12-18T14:45:51;0.50;;;0.50;;
46128;SDS011;31860;45.186;5.790;2022-12-18T14:48:22;0.60;;;0.60;;
46128;SDS011;31860;45.186;5.790;2022-12-18T14:51:00;0.20;;;0.20;;
46128;SDS011;31860;45.186;5.790;2022-12-18T14:53:41;0.22;;;0.22;;
46128;SDS011;31860;45.186;5.790;2022-12-18T14:56:20;1.70;;;0.73;;
46128;SDS011;31860;45.186;5.790;2022-12-18T14:58:48;1.75;;;0.57;;
46128;SDS011;31860;45.186;5.790;2022-12-18T15:01:23;0.30;;;0.30;;
46128;SDS011;31860;45.186;5.790;2022-12-18T15:03:58;0.32;;;0.32;;
46128;SDS011;31860;45.186;5.790;2022-12-18T15:08:53;1.00;;;0.68;;
46128;SDS011;31860;45.186;5.790;2022-12-18T15:11:26;0.47;;;0.40;;
46128;SDS011;31860;45.186;5.790;2022-12-18T15:17:06;0.60;;;0.60;;
46128;SDS011;31860;45.186;5.790;2022-12-18T15:19:42;0.40;;;0.40;;
46128;SDS011;31860;45.186;5.790;2022-12-18T15:22:26;0.70;;;0.70;;
46128;SDS011;31860;45.186;5.790;2022-12-18T15:24:54;0.77;;;0.70;;
46128;SDS011;31860;45.186;5.790;2022-12-18T15:27:22;0.40;;;0.40;;
46128;SDS011;31860;45.186;5.790;2022-12-18T15:30:00;3.10;;;0.50;;
46128;SDS011;31860;45.186;5.790;2022-12-18T15:32:26;0.63;;;0.63;;
46128;SDS011;31860;45.186;5.790;2022-12-18T15:35:01;0.40;;;0.40;;
46128;SDS011;31860;45.186;5.790;2022-12-18T15:37:36;0.63;;;0.63;;
46128;SDS011;31860;45.186;5.790;2022-12-18T15:40:02;0.45;;;0.45;;
46128;SDS011;31860;45.186;5.790;2022-12-18T15:42:28;1.27;;;0.85;;
46128;SDS011;31860;45.186;5.790;2022-12-18T15:45:12;0.35;;;0.35;;
46128;SDS011;31860;45.186;5.790;2022-12-18T15:47:39;0.82;;;0.77;;
46128;SDS011;31860;45.186;5.790;2022-12-18T15:50:06;2.38;;;0.47;;
46128;SDS011;31860;45.186;5.790;2022-12-18T15:52:32;0.88;;;0.63;;
46128;SDS011;31860;45.186;5.790;2022-12-18T15:55:13;1.00;;;0.50;;
46128;SDS011;31860;45.186;5.790;2022-12-18T15:58:00;0.50;;;0.45;;
46128;SDS011;31860;45.186;5.790;2022-12-18T16:00:25;0.40;;;0.40;;
46128;SDS011;31860;45.186;5.790;2022-12-18T16:02:51;1.63;;;1.05;;
46128;SDS011;31860;45.186;5.790;2022-12-18T16:05:18;0.98;;;0.80;;
46128;SDS011;31860;45.186;5.790;2022-12-18T16:07:45;1.60;;;0.90;;
46128;SDS011;31860;45.186;5.790;2022-12-18T16:10:11;1.33;;;1.10;;
46128;SDS011;31860;45.186;5.790;2022-12-18T16:12:37;0.60;;;0.60;;
46128;SDS011;31860;45.186;5.790;2022-12-18T16:15:03;1.02;;;0.95;;
46128;SDS011;31860;45.186;5.790;2022-12-18T16:17:30;1.00;;;0.95;;
46128;SDS011;31860;45.186;5.790;2022-12-18T16:19:55;0.73;;;0.57;;
46128;SDS011;31860;45.186;5.790;2022-12-18T16:22:22;2.85;;;1.10;;
46128;SDS011;31860;45.186;5.790;2022-12-18T16:24:47;1.15;;;0.88;;
46128;SDS011;31860;45.186;5.790;2022-12-18T16:27:14;0.57;;;0.57;;
46128;SDS011;31860;45.186;5.790;2022-12-18T16:29:39;2.53;;;0.63;;
46128;SDS011;31860;45.186;5.790;2022-12-18T16:32:05;0.63;;;0.57;;
46128;SDS011;31860;45.186;5.790;2022-12-18T16:34:31;1.08;;;0.75;;
46128;SDS011;31860;45.186;5.790;2022-12-18T16:37:05;0.85;;;0.70;;
46128;SDS011;31860;45.186;5.790;2022-12-18T16:39:32;0.63;;;0.63;;
46128;SDS011;31860;45.186;5.790;2022-12-18T16:41:59;0.80;;;0.60;;
46128;SDS011;31860;45.186;5.790;2022-12-18T16:44:25;1.38;;;0.65;;
46128;SDS011;31860;45.186;5.790;2022-12-18T16:46:51;1.85;;;0.93;;
46128;SDS011;31860;45.186;5.790;2022-12-18T16:49:16;2.40;;;0.90;;
46128;SDS011;31860;45.186;5.790;2022-12-18T16:51:43;2.58;;;1.05;;
46128;SDS011;31860;45.186;5.790;2022-12-18T16:54:10;1.17;;;1.02;;
46128;SDS011;31860;45.186;5.790;2022-12-18T16:56:35;0.60;;;0.60;;
46128;SDS011;31860;45.186;5.790;2022-12-18T16:59:01;2.85;;;0.88;;
46128;SDS011;31860;45.186;5.790;2022-12-18T17:01:28;2.47;;;1.17;;
46128;SDS011;31860;45.186;5.790;2022-12-18T17:03:55;1.23;;;0.95;;
46128;SDS011;31860;45.186;5.790;2022-12-18T17:06:22;0.70;;;0.70;;
46128;SDS011;31860;45.186;5.790;2022-12-18T17:08:54;2.20;;;0.95;;
46128;SDS011;31860;45.186;5.790;2022-12-18T17:11:21;1.02;;;0.63;;
46128;SDS011;31860;45.186;5.790;2022-12-18T17:13:46;4.75;;;1.05;;
46128;SDS011;31860;45.186;5.790;2022-12-18T17:16:12;0.73;;;0.73;;